EDT,Max TemperatureF,Mean TemperatureF,Min TemperatureF,Max Dew PointF,MeanDew PointF,Min DewpointF,Max Humidity, Mean Humidity, Min Humidity, Max Sea Level PressureIn, Mean Sea Level PressureIn, Min Sea Level PressureIn, Max VisibilityMiles, Mean VisibilityMiles, Min VisibilityMiles, Max Wind SpeedMPH, Mean Wind SpeedMPH, Max Gust SpeedMPH,PrecipitationIn, CloudCover, Events, WindDirDegrees
2013-4-1,52,40,28,43,30,10,96,64,31,29.93,29.73,29.64,10,9,4,31,12,39,T,6,Rain,260
2013-4-2,40,33,25,18,10,7,68,48,27,30.10,30.01,29.93,10,10,10,26,12,36,0.00,5,,294
2013-4-3,42,35,27,13,10,7,55,40,25,30.37,30.19,30.09,10,10,10,24,12,36,0.00,4,,302
2013-4-4,54,39,23,17,15,12,60,40,19,30.37,30.23,30.02,10,10,10,17,7,26,0.00,0,,236
2013-4-5,55,43,30,24,18,13,61,42,22,30.05,29.91,29.80,10,10,10,25,11,35,0.00,0,,303
2013-4-6,50,39,27,19,12,6,63,41,18,30.32,30.22,30.08,10,10,10,17,8,24,0.00,0,,305
2013-4-7,64,52,40,37,27,14,51,40,28,30.21,30.05,29.91,10,10,10,23,13,40,T,2,,206
2013-4-8,75,58,41,45,37,32,76,49,22,30.10,30.00,29.91,10,10,10,18,7,33,0.00,2,,216
2013-4-9,77,69,61,48,42,36,56,40,23,30.01,29.93,29.83,10,10,10,26,9,31,0.00,1,,250
2013-4-10,76,65,53,58,53,46,93,69,44,29.93,29.86,29.78,10,8,2,37,6,51,0.50,6,Rain-Thunderstorm,275
2013-4-11,54,49,43,57,44,31,93,73,53,29.96,29.92,29.82,10,10,4,14,6,18,0.01,8,Rain,356
2013-4-12,45,43,40,39,37,35,89,83,76,29.92,29.78,29.68,10,9,3,20,6,37,0.22,8,Rain,84
2013-4-13,51,45,39,41,35,28,100,74,48,29.95,29.86,29.79,10,9,2,22,7,28,0.00,7,Rain,266
2013-4-14,54,47,39,33,28,24,73,56,38,30.19,30.08,29.96,10,10,10,22,8,29,0.00,5,,312
2013-4-15,66,54,42,40,33,25,63,50,37,30.29,30.23,30.17,10,10,10,16,6,26,0.00,5,,169
2013-4-16,65,58,51,56,47,39,78,71,63,30.28,30.20,30.08,10,10,2,20,8,32,0.17,7,Rain,220
2013-4-17,64,54,44,56,40,32,89,61,32,30.29,30.22,30.14,10,8,2,16,6,21,0.18,4,Rain,15
2013-4-18,59,53,47,54,43,32,86,63,40,30.26,30.14,29.99,10,10,10,17,6,33,0.00,7,,143
2013-4-19,75,62,48,61,54,42,90,74,57,29.99,29.78,29.54,10,9,1,37,13,49,0.48,6,Rain,204
2013-4-20,53,44,34,45,28,18,86,60,33,30.37,30.00,29.73,10,10,9,25,13,32,0.04,5,Rain,276
2013-4-21,51,41,30,21,20,17,69,49,28,30.59,30.53,30.39,10,10,10,20,8,24,0.00,0,,9
2013-4-22,56,45,34,26,22,18,61,44,26,30.61,30.53,30.45,10,10,10,15,5,24,0.00,0,,127
2013-4-23,62,48,34,41,34,25,82,61,39,30.45,30.26,30.11,10,10,7,14,5,23,0.00,4,,100
2013-4-24,75,57,38,57,45,36,93,66,38,30.09,29.92,29.75,10,9,4,22,8,31,0.11,3,Rain,225
2013-4-25,59,50,40,38,27,22,70,48,25,30.26,30.16,29.98,10,10,10,23,8,29,0.00,2,,283
2013-4-26,60,51,41,34,28,23,70,48,25,30.44,30.39,30.27,10,10,10,15,6,20,0.00,2,,350
2013-4-27,69,53,36,32,28,25,64,43,22,30.44,30.36,30.26,10,10,10,12,4,17,0.00,0,,60
2013-4-28,70,57,43,37,33,31,62,43,23,30.27,30.21,30.14,10,10,10,20,7,29,T,2,Rain,158
2013-4-29,55,53,50,49,45,33,83,65,46,30.17,30.14,30.09,10,9,2,14,3,24,0.09,8,Rain,122
2013-4-30,68,58,47,49,45,24,89,60,30,30.30,30.23,30.15,10,9,4,12,4,23,T,7,Rain,121